sensor_id;sensor_type;location;lat;lon;timestamp;temperature;humidity
25568;DHT22;13455;51.480;7.594;2023-07-02T00:02:25;17.20;99.90
25568;DHT22;13455;51.480;7.594;2023-07-02T00:04:51;17.20;99.90
25568;DHT22;13455;51.480;7.594;2023-07-02T00:14:35;17.20;99.90
25568;DHT22;13455;51.480;7.594;2023-07-02T00:17:01;17.40;99.90
25568;DHT22;13455;51.480;7.594;2023-07-02T00:19:27;17.30;99.90
25568;DHT22;13455;51.480;7.594;2023-07-02T00:21:53;17.20;99.90
25568;DHT22;13455;51.480;7.594;2023-07-02T00:24:21;17.20;99.90
25568;DHT22;13455;51.480;7.594;2023-07-02T00:26:47;17.30;99.90
25568;DHT22;13455;51.480;7.594;2023-07-02T00:29:12;17.50;99.90
25568;DHT22;13455;51.480;7.594;2023-07-02T00:31:38;17.10;99.90
25568;DHT22;13455;51.480;7.594;2023-07-02T00:34:04;17.60;99.90
25568;DHT22;13455;51.480;7.594;2023-07-02T00:38:58;17.00;99.90
25568;DHT22;13455;51.480;7.594;2023-07-02T00:41:24;17.00;99.90
25568;DHT22;13455;51.480;7.594;2023-07-02T00:43:50;17.00;99.90
25568;DHT22;13455;51.480;7.594;2023-07-02T00:46:20;17.00;99.90
25568;DHT22;13455;51.480;7.594;2023-07-02T00:48:48;17.00;99.90
25568;DHT22;13455;51.480;7.594;2023-07-02T00:51:24;17.00;99.90
25568;DHT22;13455;51.480;7.594;2023-07-02T00:53:52;17.00;99.90
25568;DHT22;13455;51.480;7.594;2023-07-02T00:56:18;17.00;99.90
25568;DHT22;13455;51.480;7.594;2023-07-02T01:11:19;17.20;99.90
25568;DHT22;13455;51.480;7.594;2023-07-02T01:13:45;17.50;99.90
25568;DHT22;13455;51.480;7.594;2023-07-02T01:16:11;17.10;99.90
25568;DHT22;13455;51.480;7.594;2023-07-02T01:18:37;17.50;99.90
25568;DHT22;13455;51.480;7.594;2023-07-02T01:21:05;17.30;99.90
25568;DHT22;13455;51.480;7.594;2023-07-02T01:23:34;17.00;99.90
25568;DHT22;13455;51.480;7.594;2023-07-02T01:26:00;16.90;99.90
25568;DHT22;13455;51.480;7.594;2023-07-02T01:28:36;16.90;99.90
25568;DHT22;13455;51.480;7.594;2023-07-02T01:31:04;16.70;99.90
25568;DHT22;13455;51.480;7.594;2023-07-02T01:33:31;16.80;99.90
25568;DHT22;13455;51.480;7.594;2023-07-02T01:35:56;16.90;99.90
25568;DHT22;13455;51.480;7.594;2023-07-02T01:38:22;16.90;99.90
25568;DHT22;13455;51.480;7.594;2023-07-02T01:40:48;16.90;99.90
25568;DHT22;13455;51.480;7.594;2023-07-02T01:43:13;16.80;99.90
25568;DHT22;13455;51.480;7.594;2023-07-02T01:45:41;17.10;99.90
25568;DHT22;13455;51.480;7.594;2023-07-02T01:48:07;16.80;99.90
25568;DHT22;13455;51.480;7.594;2023-07-02T01:50:33;17.00;99.90
25568;DHT22;13455;51.480;7.594;2023-07-02T01:52:59;16.90;99.90
25568;DHT22;13455;51.480;7.594;2023-07-02T01:55:25;16.70;99.90
25568;DHT22;13455;51.480;7.594;2023-07-02T01:57:52;16.50;99.90
25568;DHT22;13455;51.480;7.594;2023-07-02T02:00:18;16.70;99.90
25568;DHT22;13455;51.480;7.594;2023-07-02T02:02:44;16.70;99.90
25568;DHT22;13455;51.480;7.594;2023-07-02T02:05:09;16.60;99.90
25568;DHT22;13455;51.480;7.594;2023-07-02T02:07:38;16.70;99.90
25568;DHT22;13455;51.480;7.594;2023-07-02T02:10:05;16.60;99.90
25568;DHT22;13455;51.480;7.594;2023-07-02T02:12:31;16.10;99.90
25568;DHT22;13455;51.480;7.594;2023-07-02T02:14:57;16.50;99.90
25568;DHT22;13455;51.480;7.594;2023-07-02T02:17:22;16.60;99.90
25568;DHT22;13455;51.480;7.594;2023-07-02T02:19:49;16.40;99.90
25568;DHT22;13455;51.480;7.594;2023-07-02T02:22:15;16.60;99.90
25568;DHT22;13455;51.480;7.594;2023-07-02T02:24:41;16.40;99.90
25568;DHT22;13455;51.480;7.594;2023-07-02T02:27:07;16.50;99.90
25568;DHT22;13455;51.480;7.594;2023-07-02T02:29:34;16.50;99.90
25568;DHT22;13455;51.480;7.594;2023-07-02T02:32:00;16.40;99.90
25568;DHT22;13455;51.480;7.594;2023-07-02T02:34:25;16.50;99.90
25568;DHT22;13455;51.480;7.594;2023-07-02T02:36:51;16.50;99.90
25568;DHT22;13455;51.480;7.594;2023-07-02T02:39:17;16.40;99.90
25568;DHT22;13455;51.480;7.594;2023-07-02T02:41:43;16.40;99.90
25568;DHT22;13455;51.480;7.594;2023-07-02T02:44:08;16.00;99.90
25568;DHT22;13455;51.480;7.594;2023-07-02T02:46:34;16.30;99.90
25568;DHT22;13455;51.480;7.594;2023-07-02T02:48:59;16.50;99.90
25568;DHT22;13455;51.480;7.594;2023-07-02T02:51:25;16.40;99.90
25568;DHT22;13455;51.480;7.594;2023-07-02T02:53:51;16.60;99.90
25568;DHT22;13455;51.480;7.594;2023-07-02T02:56:16;16.50;99.90
25568;DHT22;13455;51.480;7.594;2023-07-02T02:58:43;16.30;99.90
25568;DHT22;13455;51.480;7.594;2023-07-02T03:01:09;16.30;99.90
25568;DHT22;13455;51.480;7.594;2023-07-02T03:03:40;16.40;99.90
25568;DHT22;13455;51.480;7.594;2023-07-02T03:06:10;16.40;99.90
25568;DHT22;13455;51.480;7.594;2023-07-02T03:08:36;16.40;99.90
25568;DHT22;13455;51.480;7.594;2023-07-02T03:11:02;16.40;99.90
25568;DHT22;13455;51.480;7.594;2023-07-02T03:13:27;16.40;99.90
25568;DHT22;13455;51.480;7.594;2023-07-02T03:15:53;16.30;99.90
25568;DHT22;13455;51.480;7.594;2023-07-02T03:18:18;16.90;99.90
25568;DHT22;13455;51.480;7.594;2023-07-02T03:20:44;16.40;99.90
25568;DHT22;13455;51.480;7.594;2023-07-02T03:23:09;16.30;99.90
25568;DHT22;13455;51.480;7.594;2023-07-02T03:25:35;16.50;99.90
25568;DHT22;13455;51.480;7.594;2023-07-02T03:28:01;16.10;99.90
25568;DHT22;13455;51.480;7.594;2023-07-02T03:30:26;16.50;99.90
25568;DHT22;13455;51.480;7.594;2023-07-02T03:32:52;16.50;99.90
25568;DHT22;13455;51.480;7.594;2023-07-02T03:35:17;16.30;99.90
25568;DHT22;13455;51.480;7.594;2023-07-02T03:37:43;16.50;99.90
25568;DHT22;13455;51.480;7.594;2023-07-02T03:40:09;16.30;99.90
25568;DHT22;13455;51.480;7.594;2023-07-02T03:42:35;16.20;99.90
25568;DHT22;13455;51.480;7.594;2023-07-02T03:45:00;16.30;99.90
25568;DHT22;13455;51.480;7.594;2023-07-02T03:47:26;16.30;99.90
25568;DHT22;13455;51.480;7.594;2023-07-02T03:49:51;16.40;99.90
25568;DHT22;13455;51.480;7.594;2023-07-02T03:52:17;16.50;99.90
25568;DHT22;13455;51.480;7.594;2023-07-02T03:54:43;16.30;99.90
25568;DHT22;13455;51.480;7.594;2023-07-02T03:57:08;16.50;99.90
25568;DHT22;13455;51.480;7.594;2023-07-02T03:59:34;16.40;99.90
25568;DHT22;13455;51.480;7.594;2023-07-02T04:02:00;16.20;99.90
25568;DHT22;13455;51.480;7.594;2023-07-02T04:04:26;16.20;99.90
25568;DHT22;13455;51.480;7.594;2023-07-02T04:06:51;16.60;99.90
25568;DHT22;13455;51.480;7.594;2023-07-02T04:09:17;16.50;99.90
25568;DHT22;13455;51.480;7.594;2023-07-02T04:11:44;16.50;99.90
25568;DHT22;13455;51.480;7.594;2023-07-02T04:14:09;16.50;99.90
25568;DHT22;13455;51.480;7.594;2023-07-02T04:16:35;16.40;99.90
25568;DHT22;13455;51.480;7.594;2023-07-02T04:19:00;16.40;99.90
25568;DHT22;13455;51.480;7.594;2023-07-02T04:21:26;16.40;99.90
25568;DHT22;13455;51.480;7.594;2023-07-02T04:23:52;16.60;99.90
25568;DHT22;13455;51.480;7.594;2023-07-02T04:26:18;16.40;99.90
25568;DHT22;13455;51.480;7.594;2023-07-02T04:28:43;16.70;99.90
25568;DHT22;13455;51.480;7.594;2023-07-02T04:31:09;16.50;99.90
25568;DHT22;13455;51.480;7.594;2023-07-02T04:33:35;16.40;99.90
25568;DHT22;13455;51.480;7.594;2023-07-02T04:36:04;16.50;99.90
25568;DHT22;13455;51.480;7.594;2023-07-02T04:38:30;16.50;99.90
25568;DHT22;13455;51.480;7.594;2023-07-02T04:40:55;16.60;99.90
25568;DHT22;13455;51.480;7.594;2023-07-02T04:43:27;16.50;99.90
25568;DHT22;13455;51.480;7.594;2023-07-02T04:45:55;16.80;99.90
25568;DHT22;13455;51.480;7.594;2023-07-02T04:48:20;16.80;99.90
25568;DHT22;13455;51.480;7.594;2023-07-02T04:50:46;16.60;99.90
25568;DHT22;13455;51.480;7.594;2023-07-02T04:53:11;16.60;99.90
25568;DHT22;13455;51.480;7.594;2023-07-02T04:55:37;16.70;99.90
25568;DHT22;13455;51.480;7.594;2023-07-02T04:58:03;16.70;99.90
25568;DHT22;13455;51.480;7.594;2023-07-02T05:00:28;16.70;99.90
25568;DHT22;13455;51.480;7.594;2023-07-02T05:02:54;16.50;99.90
25568;DHT22;13455;51.480;7.594;2023-07-02T05:05:19;16.80;99.90
25568;DHT22;13455;51.480;7.594;2023-07-02T05:07:45;16.80;99.90
25568;DHT22;13455;51.480;7.594;2023-07-02T05:10:10;16.60;99.90
25568;DHT22;13455;51.480;7.594;2023-07-02T05:12:36;16.70;99.90
25568;DHT22;13455;51.480;7.594;2023-07-02T05:15:02;17.10;99.90
25568;DHT22;13455;51.480;7.594;2023-07-02T05:17:28;16.60;99.90
25568;DHT22;13455;51.480;7.594;2023-07-02T05:19:53;16.60;99.90
25568;DHT22;13455;51.480;7.594;2023-07-02T05:22:19;16.80;99.90
25568;DHT22;13455;51.480;7.594;2023-07-02T05:24:45;16.50;99.90
25568;DHT22;13455;51.480;7.594;2023-07-02T05:27:11;16.60;99.90
25568;DHT22;13455;51.480;7.594;2023-07-02T05:29:37;16.70;99.90
25568;DHT22;13455;51.480;7.594;2023-07-02T05:32:03;16.60;99.90
25568;DHT22;13455;51.480;7.594;2023-07-02T05:34:28;16.70;99.90
25568;DHT22;13455;51.480;7.594;2023-07-02T05:36:54;16.70;99.90
25568;DHT22;13455;51.480;7.594;2023-07-02T05:39:19;16.70;99.90
25568;DHT22;13455;51.480;7.594;2023-07-02T05:41:47;16.80;99.90
25568;DHT22;13455;51.480;7.594;2023-07-02T05:44:12;16.80;99.90
25568;DHT22;13455;51.480;7.594;2023-07-02T05:46:38;17.10;99.90
25568;DHT22;13455;51.480;7.594;2023-07-02T05:49:04;17.30;99.90
25568;DHT22;13455;51.480;7.594;2023-07-02T05:51:31;17.00;99.90
25568;DHT22;13455;51.480;7.594;2023-07-02T05:53:57;17.00;99.90
25568;DHT22;13455;51.480;7.594;2023-07-02T05:56:22;17.00;99.90
25568;DHT22;13455;51.480;7.594;2023-07-02T05:58:49;17.00;99.90
25568;DHT22;13455;51.480;7.594;2023-07-02T06:01:17;17.10;99.90
25568;DHT22;13455;51.480;7.594;2023-07-02T06:03:43;17.20;99.90
25568;DHT22;13455;51.480;7.594;2023-07-02T06:06:11;17.20;99.90
25568;DHT22;13455;51.480;7.594;2023-07-02T06:08:37;17.30;99.90
25568;DHT22;13455;51.480;7.594;2023-07-02T06:11:02;17.40;99.90
25568;DHT22;13455;51.480;7.594;2023-07-02T06:13:28;17.40;99.90
25568;DHT22;13455;51.480;7.594;2023-07-02T06:15:53;17.50;99.90
25568;DHT22;13455;51.480;7.594;2023-07-02T06:18:19;17.50;99.90
25568;DHT22;13455;51.480;7.594;2023-07-02T06:20:45;17.60;99.90
25568;DHT22;13455;51.480;7.594;2023-07-02T06:23:11;17.60;99.90
25568;DHT22;13455;51.480;7.594;2023-07-02T06:25:37;17.70;99.90
25568;DHT22;13455;51.480;7.594;2023-07-02T06:28:02;17.70;99.90
25568;DHT22;13455;51.480;7.594;2023-07-02T06:30:28;17.70;99.90
25568;DHT22;13455;51.480;7.594;2023-07-02T06:32:54;17.80;99.90
25568;DHT22;13455;51.480;7.594;2023-07-02T06:35:20;17.80;99.90
25568;DHT22;13455;51.480;7.594;2023-07-02T06:37:46;17.90;99.90
25568;DHT22;13455;51.480;7.594;2023-07-02T06:40:12;18.00;99.90
25568;DHT22;13455;51.480;7.594;2023-07-02T06:42:38;18.00;99.90
25568;DHT22;13455;51.480;7.594;2023-07-02T06:45:04;18.10;99.90
25568;DHT22;13455;51.480;7.594;2023-07-02T06:47:30;18.20;99.90
25568;DHT22;13455;51.480;7.594;2023-07-02T06:49:56;18.20;99.90
25568;DHT22;13455;51.480;7.594;2023-07-02T06:52:21;18.30;99.90
25568;DHT22;13455;51.480;7.594;2023-07-02T06:59:39;18.80;99.90
25568;DHT22;13455;51.480;7.594;2023-07-02T07:02:06;18.80;99.90
25568;DHT22;13455;51.480;7.594;2023-07-02T07:04:31;18.60;99.90
25568;DHT22;13455;51.480;7.594;2023-07-02T07:06:57;18.80;99.90
25568;DHT22;13455;51.480;7.594;2023-07-02T07:09:23;18.80;99.90
25568;DHT22;13455;51.480;7.594;2023-07-02T07:14:14;19.00;99.90
25568;DHT22;13455;51.480;7.594;2023-07-02T07:16:40;19.10;99.90
25568;DHT22;13455;51.480;7.594;2023-07-02T07:19:06;19.10;99.90
25568;DHT22;13455;51.480;7.594;2023-07-02T07:21:33;19.20;99.90
25568;DHT22;13455;51.480;7.594;2023-07-02T07:23:59;19.30;99.90
25568;DHT22;13455;51.480;7.594;2023-07-02T07:26:25;19.50;99.90
25568;DHT22;13455;51.480;7.594;2023-07-02T07:28:50;19.40;99.90
25568;DHT22;13455;51.480;7.594;2023-07-02T07:31:16;19.40;99.90
25568;DHT22;13455;51.480;7.594;2023-07-02T07:33:41;19.50;99.90
25568;DHT22;13455;51.480;7.594;2023-07-02T07:36:07;19.60;99.90
25568;DHT22;13455;51.480;7.594;2023-07-02T07:38:33;19.70;99.90
25568;DHT22;13455;51.480;7.594;2023-07-02T07:40:58;19.90;99.90
25568;DHT22;13455;51.480;7.594;2023-07-02T07:43:24;20.10;99.90
25568;DHT22;13455;51.480;7.594;2023-07-02T07:45:49;20.60;99.90
25568;DHT22;13455;51.480;7.594;2023-07-02T07:48:15;20.60;99.90
25568;DHT22;13455;51.480;7.594;2023-07-02T07:50:41;20.60;99.90
25568;DHT22;13455;51.480;7.594;2023-07-02T07:53:06;20.60;99.90
25568;DHT22;13455;51.480;7.594;2023-07-02T07:57:59;20.70;99.90
25568;DHT22;13455;51.480;7.594;2023-07-02T08:00:25;20.70;99.90
25568;DHT22;13455;51.480;7.594;2023-07-02T08:02:52;20.70;99.90
25568;DHT22;13455;51.480;7.594;2023-07-02T08:05:21;20.60;99.90
25568;DHT22;13455;51.480;7.594;2023-07-02T08:07:46;20.60;99.90
25568;DHT22;13455;51.480;7.594;2023-07-02T08:10:12;20.60;99.90
25568;DHT22;13455;51.480;7.594;2023-07-02T08:12:37;20.50;99.90
25568;DHT22;13455;51.480;7.594;2023-07-02T08:15:03;20.50;99.90
25568;DHT22;13455;51.480;7.594;2023-07-02T08:17:29;20.60;99.90
25568;DHT22;13455;51.480;7.594;2023-07-02T08:19:56;20.70;99.90
25568;DHT22;13455;51.480;7.594;2023-07-02T08:22:22;20.80;99.90
25568;DHT22;13455;51.480;7.594;2023-07-02T08:24:48;20.80;99.90
25568;DHT22;13455;51.480;7.594;2023-07-02T08:27:15;20.80;99.90
25568;DHT22;13455;51.480;7.594;2023-07-02T08:29:44;20.90;99.90
25568;DHT22;13455;51.480;7.594;2023-07-02T08:32:10;21.00;99.90
25568;DHT22;13455;51.480;7.594;2023-07-02T08:34:35;21.20;99.90
25568;DHT22;13455;51.480;7.594;2023-07-02T08:37:01;21.20;99.90
25568;DHT22;13455;51.480;7.594;2023-07-02T08:39:27;21.10;99.90
25568;DHT22;13455;51.480;7.594;2023-07-02T08:41:52;21.10;99.90
25568;DHT22;13455;51.480;7.594;2023-07-02T08:44:20;21.00;99.90
25568;DHT22;13455;51.480;7.594;2023-07-02T08:46:49;20.90;99.90
25568;DHT22;13455;51.480;7.594;2023-07-02T08:49:16;20.90;99.90
25568;DHT22;13455;51.480;7.594;2023-07-02T08:51:46;21.00;99.90
25568;DHT22;13455;51.480;7.594;2023-07-02T08:54:12;21.10;99.90
25568;DHT22;13455;51.480;7.594;2023-07-02T08:56:38;21.10;99.90
25568;DHT22;13455;51.480;7.594;2023-07-02T08:59:07;21.20;99.90
25568;DHT22;13455;51.480;7.594;2023-07-02T09:01:43;21.10;99.90
25568;DHT22;13455;51.480;7.594;2023-07-02T09:04:24;21.10;99.90
25568;DHT22;13455;51.480;7.594;2023-07-02T09:07:10;21.30;99.90
25568;DHT22;13455;51.480;7.594;2023-07-02T09:09:46;21.40;99.90
25568;DHT22;13455;51.480;7.594;2023-07-02T09:12:32;21.60;99.90
25568;DHT22;13455;51.480;7.594;2023-07-02T09:15:01;21.60;99.90
25568;DHT22;13455;51.480;7.594;2023-07-02T09:17:33;21.50;99.90
25568;DHT22;13455;51.480;7.594;2023-07-02T09:20:00;21.50;99.90
25568;DHT22;13455;51.480;7.594;2023-07-02T09:22:26;21.60;99.90
25568;DHT22;13455;51.480;7.594;2023-07-02T09:24:53;21.60;99.90
25568;DHT22;13455;51.480;7.594;2023-07-02T09:27:19;21.70;99.90
25568;DHT22;13455;51.480;7.594;2023-07-02T09:29:50;21.80;99.90
25568;DHT22;13455;51.480;7.594;2023-07-02T09:32:24;22.00;99.90
25568;DHT22;13455;51.480;7.594;2023-07-02T09:34:51;22.30;99.90
25568;DHT22;13455;51.480;7.594;2023-07-02T09:37:17;22.80;99.90
25568;DHT22;13455;51.480;7.594;2023-07-02T09:42:09;22.80;97.30
25568;DHT22;13455;51.480;7.594;2023-07-02T09:44:36;23.10;99.90
25568;DHT22;13455;51.480;7.594;2023-07-02T09:52:01;23.00;95.40
25568;DHT22;13455;51.480;7.594;2023-07-02T09:54:28;22.90;95.00
25568;DHT22;13455;51.480;7.594;2023-07-02T09:56:53;22.90;94.70
25568;DHT22;13455;51.480;7.594;2023-07-02T09:59:19;22.80;93.60
25568;DHT22;13455;51.480;7.594;2023-07-02T10:01:45;22.70;93.40
25568;DHT22;13455;51.480;7.594;2023-07-02T10:04:12;22.50;92.90
25568;DHT22;13455;51.480;7.594;2023-07-02T10:06:52;22.60;93.30
25568;DHT22;13455;51.480;7.594;2023-07-02T10:09:19;22.60;93.60
25568;DHT22;13455;51.480;7.594;2023-07-02T10:11:45;22.60;93.40
25568;DHT22;13455;51.480;7.594;2023-07-02T10:14:11;22.70;93.80
25568;DHT22;13455;51.480;7.594;2023-07-02T10:16:54;22.70;92.90
25568;DHT22;13455;51.480;7.594;2023-07-02T10:19:21;22.70;93.00
25568;DHT22;13455;51.480;7.594;2023-07-02T10:22:00;22.90;92.80
25568;DHT22;13455;51.480;7.594;2023-07-02T10:29:21;23.40;91.50
25568;DHT22;13455;51.480;7.594;2023-07-02T10:31:52;23.50;91.60
25568;DHT22;13455;51.480;7.594;2023-07-02T10:34:34;23.80;91.10
25568;DHT22;13455;51.480;7.594;2023-07-02T10:37:01;23.70;91.10
25568;DHT22;13455;51.480;7.594;2023-07-02T10:39:29;23.80;91.40
25568;DHT22;13455;51.480;7.594;2023-07-02T10:42:07;23.10;90.30
25568;DHT22;13455;51.480;7.594;2023-07-02T10:44:33;24.70;91.40
25568;DHT22;13455;51.480;7.594;2023-07-02T10:46:59;23.80;90.90
25568;DHT22;13455;51.480;7.594;2023-07-02T10:49:31;23.80;90.80
25568;DHT22;13455;51.480;7.594;2023-07-02T10:52:01;23.80;90.80
25568;DHT22;13455;51.480;7.594;2023-07-02T10:54:44;23.80;91.00
25568;DHT22;13455;51.480;7.594;2023-07-02T10:57:13;23.80;96.40
25568;DHT22;13455;51.480;7.594;2023-07-02T10:59:40;23.70;90.60
25568;DHT22;13455;51.480;7.594;2023-07-02T11:02:06;23.60;90.60
25568;DHT22;13455;51.480;7.594;2023-07-02T11:04:32;23.60;90.70
25568;DHT22;13455;51.480;7.594;2023-07-02T11:06:59;23.80;90.60
25568;DHT22;13455;51.480;7.594;2023-07-02T11:09:25;23.90;90.90
25568;DHT22;13455;51.480;7.594;2023-07-02T11:11:58;23.90;90.30
25568;DHT22;13455;51.480;7.594;2023-07-02T11:14:34;23.80;89.80
25568;DHT22;13455;51.480;7.594;2023-07-02T11:17:03;23.70;88.70
25568;DHT22;13455;51.480;7.594;2023-07-02T11:19:33;23.70;90.00
25568;DHT22;13455;51.480;7.594;2023-07-02T11:22:00;23.80;90.30
25568;DHT22;13455;51.480;7.594;2023-07-02T11:24:33;24.00;90.10
25568;DHT22;13455;51.480;7.594;2023-07-02T11:27:00;24.10;88.70
25568;DHT22;13455;51.480;7.594;2023-07-02T11:29:27;24.10;89.60
25568;DHT22;13455;51.480;7.594;2023-07-02T11:31:53;24.20;88.30
25568;DHT22;13455;51.480;7.594;2023-07-02T11:34:21;24.30;88.70
25568;DHT22;13455;51.480;7.594;2023-07-02T11:36:47;24.40;87.40
25568;DHT22;13455;51.480;7.594;2023-07-02T11:39:13;24.50;87.40
25568;DHT22;13455;51.480;7.594;2023-07-02T11:41:43;24.60;88.40
25568;DHT22;13455;51.480;7.594;2023-07-02T11:44:09;24.70;85.90
25568;DHT22;13455;51.480;7.594;2023-07-02T11:53:55;25.20;83.10
25568;DHT22;13455;51.480;7.594;2023-07-02T11:56:21;25.20;82.50
25568;DHT22;13455;51.480;7.594;2023-07-02T11:58:46;25.20;80.40
25568;DHT22;13455;51.480;7.594;2023-07-02T12:01:12;25.20;79.90
25568;DHT22;13455;51.480;7.594;2023-07-02T12:03:37;25.40;81.50
25568;DHT22;13455;51.480;7.594;2023-07-02T12:18:15;26.40;77.60
25568;DHT22;13455;51.480;7.594;2023-07-02T12:20:40;26.60;83.50
25568;DHT22;13455;51.480;7.594;2023-07-02T12:23:06;26.80;91.60
25568;DHT22;13455;51.480;7.594;2023-07-02T13:04:35;27.00;67.10
25568;DHT22;13455;51.480;7.594;2023-07-02T13:09:27;27.10;98.60
25568;DHT22;13455;51.480;7.594;2023-07-02T13:11:52;27.30;93.50
25568;DHT22;13455;51.480;7.594;2023-07-02T13:14:18;27.20;88.80
25568;DHT22;13455;51.480;7.594;2023-07-02T13:16:44;26.70;87.20
25568;DHT22;13455;51.480;7.594;2023-07-02T13:19:09;26.50;63.80
25568;DHT22;13455;51.480;7.594;2023-07-02T13:21:36;26.40;63.40
25568;DHT22;13455;51.480;7.594;2023-07-02T13:26:28;26.60;90.50
25568;DHT22;13455;51.480;7.594;2023-07-02T13:28:53;26.90;91.40
25568;DHT22;13455;51.480;7.594;2023-07-02T13:31:19;27.00;63.60
25568;DHT22;13455;51.480;7.594;2023-07-02T13:38:40;27.60;60.40
25568;DHT22;13455;51.480;7.594;2023-07-02T13:41:06;27.80;61.10
25568;DHT22;13455;51.480;7.594;2023-07-02T13:43:32;28.20;60.30
25568;DHT22;13455;51.480;7.594;2023-07-02T14:24:57;28.00;68.70
25568;DHT22;13455;51.480;7.594;2023-07-02T14:27:22;28.00;81.00
25568;DHT22;13455;51.480;7.594;2023-07-02T14:29:48;28.20;63.80
25568;DHT22;13455;51.480;7.594;2023-07-02T14:32:14;28.30;64.30
25568;DHT22;13455;51.480;7.594;2023-07-02T14:34:40;28.60;63.10
25568;DHT22;13455;51.480;7.594;2023-07-02T14:37:06;28.70;65.00
25568;DHT22;13455;51.480;7.594;2023-07-02T14:39:32;28.60;82.00
25568;DHT22;13455;51.480;7.594;2023-07-02T14:46:50;29.70;57.00
25568;DHT22;13455;51.480;7.594;2023-07-02T14:49:16;30.00;66.30
25568;DHT22;13455;51.480;7.594;2023-07-02T14:51:42;29.50;57.50
25568;DHT22;13455;51.480;7.594;2023-07-02T14:54:09;29.60;58.50
25568;DHT22;13455;51.480;7.594;2023-07-02T14:56:35;30.10;58.80
25568;DHT22;13455;51.480;7.594;2023-07-02T14:59:04;29.80;57.30
25568;DHT22;13455;51.480;7.594;2023-07-02T15:01:30;29.90;57.30
25568;DHT22;13455;51.480;7.594;2023-07-02T15:06:22;30.30;56.80
25568;DHT22;13455;51.480;7.594;2023-07-02T15:11:15;30.50;55.30
25568;DHT22;13455;51.480;7.594;2023-07-02T15:13:41;30.50;55.90
25568;DHT22;13455;51.480;7.594;2023-07-02T15:18:34;30.80;55.10
25568;DHT22;13455;51.480;7.594;2023-07-02T15:33:13;30.60;88.40
25568;DHT22;13455;51.480;7.594;2023-07-02T15:35:39;31.20;72.00
25568;DHT22;13455;51.480;7.594;2023-07-02T15:38:04;30.70;63.10
25568;DHT22;13455;51.480;7.594;2023-07-02T15:57:32;29.90;90.50
25568;DHT22;13455;51.480;7.594;2023-07-02T15:59:57;30.20;79.00
25568;DHT22;13455;51.480;7.594;2023-07-02T16:02:23;30.40;88.20
25568;DHT22;13455;51.480;7.594;2023-07-02T16:04:49;30.40;91.80
25568;DHT22;13455;51.480;7.594;2023-07-02T16:09:41;30.80;54.50
25568;DHT22;13455;51.480;7.594;2023-07-02T16:12:08;30.80;54.40
25568;DHT22;13455;51.480;7.594;2023-07-02T16:14:34;30.90;55.00
25568;DHT22;13455;51.480;7.594;2023-07-02T16:17:01;31.00;60.20
25568;DHT22;13455;51.480;7.594;2023-07-02T16:19:26;31.30;54.00
25568;DHT22;13455;51.480;7.594;2023-07-02T16:26:52;31.00;52.30
25568;DHT22;13455;51.480;7.594;2023-07-02T16:29:20;31.10;53.00
25568;DHT22;13455;51.480;7.594;2023-07-02T16:31:52;30.90;50.50
25568;DHT22;13455;51.480;7.594;2023-07-02T16:36:45;30.90;73.60
25568;DHT22;13455;51.480;7.594;2023-07-02T16:39:15;30.90;75.50
25568;DHT22;13455;51.480;7.594;2023-07-02T16:41:41;30.60;74.30
25568;DHT22;13455;51.480;7.594;2023-07-02T16:44:18;30.50;75.90
25568;DHT22;13455;51.480;7.594;2023-07-02T16:46:50;30.40;52.20
25568;DHT22;13455;51.480;7.594;2023-07-02T17:18:55;30.20;81.00
25568;DHT22;13455;51.480;7.594;2023-07-02T17:21:20;29.30;51.70
25568;DHT22;13455;51.480;7.594;2023-07-02T17:23:46;29.10;52.70
25568;DHT22;13455;51.480;7.594;2023-07-02T17:26:12;28.80;82.40
25568;DHT22;13455;51.480;7.594;2023-07-02T17:28:37;28.60;54.10
25568;DHT22;13455;51.480;7.594;2023-07-02T17:31:03;27.90;53.00
25568;DHT22;13455;51.480;7.594;2023-07-02T17:33:28;27.80;53.70
25568;DHT22;13455;51.480;7.594;2023-07-02T17:38:20;27.10;54.60
25568;DHT22;13455;51.480;7.594;2023-07-02T17:43:12;26.60;55.40
25568;DHT22;13455;51.480;7.594;2023-07-02T17:45:38;26.30;56.70
25568;DHT22;13455;51.480;7.594;2023-07-02T17:48:04;26.30;57.30
25568;DHT22;13455;51.480;7.594;2023-07-02T17:55:22;25.70;58.20
25568;DHT22;13455;51.480;7.594;2023-07-02T17:57:48;25.50;58.30
25568;DHT22;13455;51.480;7.594;2023-07-02T18:07:32;25.20;59.00
25568;DHT22;13455;51.480;7.594;2023-07-02T18:12:24;25.00;59.60
25568;DHT22;13455;51.480;7.594;2023-07-02T18:14:51;24.90;61.20
25568;DHT22;13455;51.480;7.594;2023-07-02T18:17:17;24.70;61.60
25568;DHT22;13455;51.480;7.594;2023-07-02T18:19:43;24.60;61.80
25568;DHT22;13455;51.480;7.594;2023-07-02T18:34:26;23.70;64.80
25568;DHT22;13455;51.480;7.594;2023-07-02T18:46:47;23.40;65.60
25568;DHT22;13455;51.480;7.594;2023-07-02T18:49:14;23.10;66.10
25568;DHT22;13455;51.480;7.594;2023-07-02T18:51:40;23.10;66.90
25568;DHT22;13455;51.480;7.594;2023-07-02T18:58:58;22.90;67.80
25568;DHT22;13455;51.480;7.594;2023-07-02T19:01:24;22.90;70.60
25568;DHT22;13455;51.480;7.594;2023-07-02T19:03:50;22.70;68.80
25568;DHT22;13455;51.480;7.594;2023-07-02T19:06:15;22.50;69.50
25568;DHT22;13455;51.480;7.594;2023-07-02T19:08:41;22.50;70.10
25568;DHT22;13455;51.480;7.594;2023-07-02T19:11:08;22.40;87.00
25568;DHT22;13455;51.480;7.594;2023-07-02T19:13:34;22.40;71.60
25568;DHT22;13455;51.480;7.594;2023-07-02T19:16:00;22.30;71.90
25568;DHT22;13455;51.480;7.594;2023-07-02T19:18:26;22.20;72.60
25568;DHT22;13455;51.480;7.594;2023-07-02T19:20:52;22.20;91.70
25568;DHT22;13455;51.480;7.594;2023-07-02T19:23:18;22.20;73.90
25568;DHT22;13455;51.480;7.594;2023-07-02T19:25:45;22.00;74.00
25568;DHT22;13455;51.480;7.594;2023-07-02T19:28:12;21.90;91.40
25568;DHT22;13455;51.480;7.594;2023-07-02T19:30:37;22.10;92.80
25568;DHT22;13455;51.480;7.594;2023-07-02T19:33:03;21.80;75.40
25568;DHT22;13455;51.480;7.594;2023-07-02T19:37:55;21.60;76.40
25568;DHT22;13455;51.480;7.594;2023-07-02T19:40:21;21.80;81.90
25568;DHT22;13455;51.480;7.594;2023-07-02T19:42:49;21.70;92.70
25568;DHT22;13455;51.480;7.594;2023-07-02T19:50:06;21.30;99.90
25568;DHT22;13455;51.480;7.594;2023-07-02T19:52:32;21.50;99.90
25568;DHT22;13455;51.480;7.594;2023-07-02T19:57:31;21.00;99.90
25568;DHT22;13455;51.480;7.594;2023-07-02T19:59:58;21.10;80.90
25568;DHT22;13455;51.480;7.594;2023-07-02T20:02:26;21.30;82.20
25568;DHT22;13455;51.480;7.594;2023-07-02T20:04:59;21.00;86.00
25568;DHT22;13455;51.480;7.594;2023-07-02T20:07:30;21.10;91.60
25568;DHT22;13455;51.480;7.594;2023-07-02T20:09:56;20.90;90.90
25568;DHT22;13455;51.480;7.594;2023-07-02T20:14:54;21.00;86.60
25568;DHT22;13455;51.480;7.594;2023-07-02T20:17:19;21.00;95.20
25568;DHT22;13455;51.480;7.594;2023-07-02T20:24:42;20.60;90.90